KMHS/MHS METAR and TAF weather

Enter ICAO airport designator
Station Type Date Time Source
KMHS METAR 2021/01/16 02:56 UTC NOAA

KMHS 160256Z AUTO 00000KT 10SM CLR 04/02 A3037 RMK AO2 SLP313 T00390017 51010


Station Type Date Time Source
KMHS Decoded METAR 2021/01/16 02:56 UTC NOAA

MOUNT SHASTA, CA, United States (KMHS) 41-19N 122-19W 1078M
Jan 15, 2021 - 09:56 PM EST / 2021.01.16 0256 UTC
Wind: Calm:0
Visibility: 10 mile(s):0
Sky conditions: clear
Temperature: 39.0 F (3.9 C)
Dew Point: 35.1 F (1.7 C)
Relative Humidity: 85%
Pressure (altimeter): 30.37 in. Hg (1028 hPa)
Pressure tendency: 0.03 inches (1.0 hPa) higher than three hours ago
ob: KMHS 160256Z AUTO 00000KT 10SM CLR 04/02 A3037 RMK AO2 SLP313 T00390017 51010
cycle: 3

Station Type Date Time Source
KMHS TAF UTC NOAA

Error!

Example: see airport list